K5BV Weather Reports


Display with metric or nautical units.
time (UTC)temp
F
wind
direction
speed
MPH
gust
MPH
rain 1hr
in
rain 24hr
in
rain mn
in
humidity
%
barometer
mb
20221128111303 63 63 3.0 6.0 0.00 0.01 0.01 93 1015.6
20221128110302 63 27 0.0 5.0 0.00 0.01 0.01 92 1015.7
20221128105305 62 17 0.0 3.0 0.00 0.01 0.01 92 1015.8
20221128104302 63 18 1.0 5.0 0.00 0.01 0.01 92 1015.6
20221128103303 62 22 2.0 7.0 0.00 0.01 0.01 92 1015.5
20221128102305 62 40 0.0 7.0 0.00 0.01 0.01 92 1015.3
20221128101303 63 17 2.0 6.0 0.00 0.01 0.01 92 1015.3
20221128100302 63 356 3.0 7.0 0.00 0.01 0.01 92 1015.4
20221128095305 63 11 0.0 3.0 0.00 0.01 0.01 92 1015.4
20221128094303 62 15 3.0 6.0 0.00 0.01 0.01 92 1015.5
20221128093303 63 3 5.0 8.0 0.00 0.01 0.01 92 1015.5
20221128092305 62 349 3.0 7.0 0.00 0.01 0.01 92 1015.4
20221128091303 61 4 2.0 5.0 0.00 0.01 0.01 92 1015.4
20221128090302 61 356 1.0 7.0 0.00 0.01 0.01 92 1015.4
20221128085304 61 358 5.0 7.0 0.00 0.01 0.01 92 1015.4
20221128084302 62 8 0.0 5.0 0.00 0.01 0.01 91 1015.3
20221128083303 63 356 3.0 6.0 0.00 0.01 0.01 91 1015.3
20221128082305 64 175 0.0 0.0 0.00 0.01 0.01 91 1015.3
20221128081302 63 175 0.0 0.0 0.01 0.01 0.01 91 1015.3
20221128080302 64 175 0.0 0.0 0.01 0.01 0.01 91 1015.3
20221128075305 64 175 0.0 0.0 0.01 0.01 0.01 91 1015.3
20221128074302 64 175 0.0 0.0 0.01 0.01 0.01 91 1015.3
20221128073303 64 175 0.0 0.0 0.01 0.01 0.01 91 1015.3
20221128072305 64 175 0.0 0.0 0.01 0.01 0.01 91 1015.3
20221128071302 65 175 0.0 0.0 0.00 0.00 0.00 91 1015.4
20221128070302 64 175 0.0 0.0 0.00 0.00 0.00 91 1015.4
20221128065305 65 175 0.0 0.0 0.00 0.00 0.00 91 1015.4
20221128064303 66 175 0.0 0.0 0.00 0.00 0.00 90 1015.4
20221128063302 65 175 0.0 0.0 0.00 0.00 0.00 92 1015.5
20221128062305 66 175 0.0 0.0 0.00 0.00 0.00 90 1015.5
20221128061303 65 175 0.0 0.0 0.00 0.00 0.00 91 1015.5
20221128060308 64 175 0.0 0.0 0.00 0.00 0.00 91 1015.5
20221128055305 65 175 0.0 0.0 0.00 0.00 0.00 90 1015.5
20221128054302 64 175 0.0 0.0 0.00 0.00 0.00 90 1015.5
20221128053302 64 175 0.0 0.0 0.00 0.00 0.00 90 1015.5
20221128052305 64 175 0.0 0.0 0.00 0.00 0.00 90 1015.6
20221128051302 64 175 0.0 0.0 0.00 0.00 0.00 89 1015.6
20221128050302 64 175 0.0 0.0 0.00 0.00 0.00 90 1015.6
20221128045305 64 175 0.0 0.0 0.00 0.00 0.00 90 1015.5
20221128044302 64 175 0.0 0.0 0.00 0.00 0.00 89 1015.5
20221128043303 64 175 0.0 0.0 0.00 0.00 0.00 88 1015.6
20221128042305 65 175 0.0 0.0 0.00 0.00 0.00 88 1015.5
20221128041302 66 175 0.0 0.0 0.00 0.00 0.00 88 1015.6
20221128040302 66 175 0.0 0.0 0.00 0.00 0.00 88 1015.6
20221128035305 65 175 0.0 0.0 0.00 0.00 0.00 88 1015.6
20221128034302 64 175 0.0 0.0 0.00 0.00 0.00 87 1015.5
20221128033302 63 175 0.0 0.0 0.00 0.00 0.00 87 1015.5
20221128032304 64 175 0.0 0.0 0.00 0.00 0.00 87 1015.3
20221128031302 63 175 0.0 0.0 0.00 0.00 0.00 87 1015.2
20221128030302 64 175 0.0 0.0 0.00 0.00 0.00 87 1015.2
20221128025305 64 175 0.0 0.0 0.00 0.00 0.00 87 1015.1
20221128024302 64 175 0.0 0.0 0.00 0.00 0.00 86 1015.0
20221128023302 65 175 0.0 0.0 0.00 0.00 0.00 87 1014.9
20221128022305 65 175 0.0 0.0 0.00 0.00 0.00 87 1014.9
20221128021302 66 175 0.0 0.0 0.00 0.00 0.00 87 1014.7
20221128020302 64 175 0.0 0.0 0.00 0.00 0.00 87 1014.7
20221128015302 64 175 0.0 0.0 0.00 0.00 0.00 87 1014.7
20221128014302 63 175 0.0 0.0 0.00 0.00 0.00 86 1014.6
20221128013302 64 175 0.0 0.0 0.00 0.00 0.00 85 1014.5
20221128012305 63 175 0.0 0.0 0.00 0.00 0.00 85 1014.5
20221128011303 64 175 0.0 0.0 0.00 0.00 0.00 85 1014.3
20221128010302 65 175 0.0 0.0 0.00 0.00 0.00 85 1014.2
20221128005305 64 175 0.0 3.0 0.00 0.00 0.00 85 1014.1
20221128004303 64 201 2.0 6.0 0.00 0.00 0.00 85 1014.0
20221128003302 64 205 4.0 7.0 0.00 0.00 0.00 84 1013.9
20221128002305 65 209 3.0 5.0 0.00 0.00 0.00 83 1013.9
20221128001302 65 197 2.0 6.0 0.00 0.00 0.00 82 1013.8
20221128000302 66 198 3.0 6.0 0.00 0.00 0.00 81 1013.7
20221127235304 66 193 3.0 6.0 0.00 0.00 0.00 80 1013.6
20221127234302 67 182 0.0 0.0 0.00 0.00 0.00 78 1013.4
20221127233302 67 182 0.0 5.0 0.00 0.00 0.00 76 1013.4
20221127232305 69 188 2.0 6.0 0.00 0.00 0.00 73 1013.2
20221127231303 69 191 4.0 7.0 0.00 0.00 0.00 71 1013.1
20221127230302 70 180 4.0 6.0 0.00 0.00 0.00 70 1013.0
20221127225305 70 180 3.0 8.0 0.00 0.00 0.00 69 1013.1
20221127224302 71 183 6.0 8.0 0.00 0.00 0.00 69 1012.9
20221127223302 70 182 6.0 10.0 0.00 0.00 0.00 70 1012.8
20221127222305 72 190 6.0 9.0 0.00 0.00 0.00 66 1012.8
20221127221302 72 187 6.0 9.0 0.00 0.00 0.00 65 1012.6
20221127220302 72 177 5.0 8.0 0.00 0.00 0.00 66 1012.6
20221127215305 71 192 4.0 7.0 0.00 0.00 0.00 66 1012.7
20221127214303 72 193 3.0 8.0 0.00 0.00 0.00 65 1012.7
20221127213302 73 190 6.0 9.0 0.00 0.00 0.00 63 1012.7
20221127212302 74 191 4.0 7.0 0.00 0.00 0.00 60 1012.8
20221127211302 73 186 5.0 8.0 0.00 0.00 0.00 60 1012.8
20221127210301 73 182 6.0 9.0 0.00 0.00 0.00 60 1012.9
20221127205301 73 179 7.0 9.0 0.00 0.00 0.00 60 1012.9
20221127204303 74 174 6.0 9.0 0.00 0.00 0.00 57 1013.0
20221127203302 75 184 6.0 8.0 0.00 0.00 0.00 55 1013.1
20221127202305 74 170 6.0 10.0 0.00 0.00 0.00 56 1013.1
20221127201302 73 178 7.0 10.0 0.00 0.00 0.00 55 1013.1
20221127200301 75 186 3.0 7.0 0.00 0.00 0.00 53 1013.2
20221127195305 74 175 5.0 8.0 0.00 0.00 0.00 54 1013.3
20221127194302 74 174 5.0 7.0 0.00 0.00 0.00 53 1013.5
20221127193302 74 182 6.0 8.0 0.00 0.00 0.00 53 1013.6
20221127192301 73 187 6.0 8.0 0.00 0.00 0.00 54 1013.8
20221127191302 73 192 6.0 9.0 0.00 0.00 0.00 53 1014.0
20221127190302 73 187 6.0 7.0 0.00 0.00 0.00 54 1014.1
20221127185305 73 192 5.0 7.0 0.00 0.00 0.00 57 1014.2
20221127184302 73 187 3.0 6.0 0.00 0.00 0.00 57 1014.4
20221127183302 72 188 4.0 7.0 0.00 0.00 0.00 60 1014.6
20221127182305 71 182 3.0 7.0 0.00 0.00 0.00 61 1014.6
20221127181302 71 189 3.0 6.0 0.00 0.00 0.00 62 1014.9
20221127180308 69 193 3.0 7.0 0.00 0.00 0.00 64 1015.1
20221127175304 67 177 4.0 7.0 0.00 0.00 0.00 66 1015.2
20221127174301 67 200 5.0 7.0 0.00 0.00 0.00 68 1015.2
20221127173302 66 191 5.0 8.0 0.00 0.00 0.00 71 1015.2
20221127172305 64 192 6.0 8.0 0.00 0.00 0.00 72 1015.4
20221127171302 65 197 6.0 8.0 0.00 0.00 0.00 70 1015.2
20221127170302 65 197 6.0 9.0 0.00 0.00 0.00 71 1015.3
20221127165305 67 201 6.0 8.0 0.00 0.00 0.00 68 1015.5
20221127164302 66 191 4.0 8.0 0.00 0.00 0.00 69 1015.6
20221127163302 65 233 3.0 7.0 0.00 0.00 0.00 71 1015.7
20221127162304 64 227 4.0 8.0 0.00 0.00 0.00 72 1015.8
20221127161302 65 238 4.0 8.0 0.00 0.00 0.00 73 1015.9
20221127160301 63 223 4.0 8.0 0.00 0.00 0.00 74 1016.1
20221127155301 63 238 4.0 7.0 0.00 0.00 0.00 75 1016.1
20221127154302 62 219 4.0 6.0 0.00 0.00 0.00 76 1016.0
20221127153303 62 223 3.0 7.0 0.00 0.00 0.00 76 1015.9
20221127152305 61 238 5.0 6.0 0.00 0.00 0.00 77 1015.8
20221127151302 61 243 5.0 8.0 0.00 0.00 0.00 77 1015.5
20221127150302 60 234 3.0 8.0 0.00 0.00 0.00 80 1015.5
20221127145305 59 236 5.0 9.0 0.00 0.00 0.00 82 1015.5
20221127144301 58 242 6.0 9.0 0.00 0.00 0.00 82 1015.6
20221127143302 57 253 6.0 8.0 0.00 0.00 0.00 83 1015.6
20221127142304 58 244 5.0 7.0 0.00 0.00 0.00 83 1015.5
20221127141302 57 246 5.0 7.0 0.00 0.00 0.00 84 1015.3
20221127140301 57 257 5.0 7.0 0.00 0.00 0.00 85 1015.3
20221127135305 57 249 5.0 6.0 0.00 0.00 0.00 84 1015.3
20221127134302 56 248 5.0 6.0 0.00 0.00 0.00 84 1015.3
20221127133303 56 254 5.0 7.0 0.00 0.00 0.00 84 1015.2
20221127132305 58 263 3.0 6.0 0.00 0.00 0.00 83 1015.1
20221127131305 58 261 2.0 6.0 0.00 0.00 0.00 82 1015.1
20221127130304 59 278 3.0 7.0 0.00 0.00 0.00 82 1014.9
20221127125305 59 253 5.0 9.0 0.00 0.00 0.00 82 1014.8
20221127124304 59 245 5.0 9.0 0.00 0.00 0.00 82 1014.7
20221127123304 59 231 7.0 12.0 0.00 0.00 0.00 80 1014.6
20221127122305 59 229 7.0 12.0 0.00 0.00 0.00 82 1014.4
20221127121304 59 244 5.0 9.0 0.00 0.00 0.00 84 1014.5
20221127120305 59 228 6.0 10.0 0.00 0.00 0.00 84 1014.4
20221127115305 59 223 6.0 10.0 0.00 0.00 0.00 84 1014.3
20221127114304 58 222 4.0 8.0 0.00 0.00 0.00 85 1014.3
20221127113305 58 229 6.0 8.0 0.00 0.00 0.00 84 1014.2
20221127112305 58 245 5.0 8.0 0.00 0.00 0.00 85 1014.2